Time;durP1;ratioP1;P1;durP2;ratioP2;P2;SDS_P1;SDS_P2;PMS_P1;PMS_P2;Temp;Humidity;BMP_temperature;BMP_pressure;BME280_temperature;BME280_humidity;BME280_pressure;Samples;Min_cycle;Max_cycle;Signal;HPM_P1;HPM_P2
2022/07/07 00:01:48;;;;;;;2.78;1.05;;;18.90;65.60;;;;;;5002680;28;20164;-68
2022/07/07 00:04:14;;;;;;;2.00;1.15;;;18.80;65.50;;;;;;5025003;28;20385;-68
2022/07/07 00:06:40;;;;;;;1.75;1.30;;;18.90;65.50;;;;;;5015291;28;20477;-68
2022/07/07 00:09:05;;;;;;;4.63;1.67;;;18.90;65.50;;;;;;5013305;28;20081;-67
2022/07/07 00:11:31;;;;;;;1.38;1.10;;;18.90;65.40;;;;;;5013532;28;20044;-68
2022/07/07 00:13:57;;;;;;;4.07;1.20;;;18.90;65.40;;;;;;5013442;28;20030;-68
2022/07/07 00:16:23;;;;;;;3.42;1.42;;;18.90;65.30;;;;;;5013438;28;20026;-68
2022/07/07 00:18:49;;;;;;;2.05;1.10;;;19.00;65.30;;;;;;4998119;28;20072;-68
2022/07/07 00:21:15;;;;;;;3.97;1.27;;;18.90;65.30;;;;;;4997417;28;20022;-68
2022/07/07 00:23:41;;;;;;;5.20;1.30;;;19.00;65.30;;;;;;5012385;28;20079;-68
2022/07/07 00:26:06;;;;;;;2.38;1.05;;;18.90;65.30;;;;;;5011844;28;20018;-68
2022/07/07 00:28:32;;;;;;;2.15;1.23;;;18.90;65.20;;;;;;5013261;28;20041;-69
2022/07/07 00:30:58;;;;;;;2.30;1.33;;;19.00;65.20;;;;;;5013189;28;20030;-69
2022/07/07 00:33:24;;;;;;;1.45;1.00;;;19.00;65.20;;;;;;5012326;28;20037;-69
2022/07/07 00:35:50;;;;;;;3.40;1.02;;;19.00;65.20;;;;;;5013671;28;20085;-68
2022/07/07 00:38:15;;;;;;;3.60;1.33;;;19.00;65.30;;;;;;5012819;28;20072;-68
2022/07/07 00:40:41;;;;;;;3.13;1.45;;;19.00;65.40;;;;;;5012706;28;20428;-69
2022/07/07 00:43:07;;;;;;;2.58;1.25;;;19.00;65.30;;;;;;4996879;28;20041;-68
2022/07/07 00:45:32;;;;;;;2.67;1.00;;;19.10;65.40;;;;;;5006938;28;20032;-68
2022/07/07 00:48:01;;;;;;;2.83;1.20;;;19.00;65.30;;;;;;4996741;28;20037;-69
2022/07/07 00:50:27;;;;;;;3.20;1.23;;;19.10;65.30;;;;;;5006282;28;20113;-69
2022/07/07 00:52:53;;;;;;;2.10;1.15;;;19.10;65.30;;;;;;5012137;28;20132;-69
2022/07/07 00:55:19;;;;;;;1.85;1.00;;;19.10;65.20;;;;;;5013015;28;20045;-69
2022/07/07 00:57:44;;;;;;;2.17;1.05;;;19.10;65.20;;;;;;5011554;28;20065;-69
2022/07/07 01:00:13;;;;;;;2.58;1.30;;;19.10;65.20;;;;;;5014931;28;20026;-69
2022/07/07 01:02:42;;;;;;;4.88;1.48;;;19.20;65.20;;;;;;5014487;28;20087;-69
2022/07/07 01:05:08;;;;;;;2.00;1.10;;;19.20;65.10;;;;;;5015655;28;20462;-69
2022/07/07 01:07:34;;;;;;;3.47;1.25;;;19.20;65.20;;;;;;5013255;28;20036;-69
2022/07/07 01:10:01;;;;;;;3.08;1.35;;;19.20;65.20;;;;;;5014469;28;20046;-69
2022/07/07 01:12:33;;;;;;;1.13;0.80;;;19.20;65.60;;;;;;5013121;28;20401;-69
2022/07/07 01:14:58;;;;;;;3.33;1.30;;;19.20;65.10;;;;;;5012891;28;20096;-69
2022/07/07 01:17:24;;;;;;;1.42;0.95;;;19.30;65.60;;;;;;5016806;28;20017;-69
2022/07/07 01:19:49;;;;;;;1.63;1.15;;;19.30;65.20;;;;;;5021851;28;20026;-69
2022/07/07 01:22:17;;;;;;;2.33;1.20;;;19.30;65.40;;;;;;5015062;28;20029;-69
2022/07/07 01:24:43;;;;;;;2.08;1.20;;;19.20;66.00;;;;;;5012567;28;20052;-69
2022/07/07 01:27:10;;;;;;;4.75;1.70;;;19.20;66.80;;;;;;5011883;28;20026;-69
2022/07/07 01:29:44;;;;;;;2.97;1.35;;;19.20;67.40;;;;;;5012564;28;20152;-69
2022/07/07 01:32:10;;;;;;;3.85;1.52;;;19.10;68.50;;;;;;5007499;28;20129;-69
2022/07/07 01:34:37;;;;;;;2.15;1.25;;;19.10;69.30;;;;;;5011529;28;20063;-69
2022/07/07 01:37:03;;;;;;;2.40;1.00;;;19.00;69.60;;;;;;5012181;28;20112;-69
2022/07/07 01:39:29;;;;;;;3.83;1.50;;;19.00;70.20;;;;;;4999935;28;20053;-68
2022/07/07 01:41:54;;;;;;;2.42;1.10;;;19.00;70.70;;;;;;5001811;28;20084;-68
2022/07/07 01:44:20;;;;;;;8.07;2.38;;;18.90;71.00;;;;;;5012118;28;20051;-69
2022/07/07 01:46:46;;;;;;;3.10;1.20;;;18.90;71.50;;;;;;5010948;28;20358;-69
2022/07/07 01:49:11;;;;;;;2.70;1.00;;;18.90;72.30;;;;;;5010983;28;20505;-69
2022/07/07 01:51:37;;;;;;;2.75;0.90;;;18.80;72.80;;;;;;5011415;28;20041;-69
2022/07/07 01:54:03;;;;;;;4.72;1.10;;;18.90;73.10;;;;;;4993219;28;20026;-69
2022/07/07 01:56:28;;;;;;;4.00;0.98;;;18.80;73.60;;;;;;4997624;28;20021;-68
2022/07/07 01:58:54;;;;;;;3.50;1.30;;;18.80;74.20;;;;;;5012504;28;20068;-68
2022/07/07 02:01:19;;;;;;;3.83;1.20;;;18.70;74.80;;;;;;5011337;28;20028;-68
2022/07/07 02:03:45;;;;;;;2.30;1.00;;;18.70;75.10;;;;;;5010735;28;20113;-69
2022/07/07 02:06:10;;;;;;;1.50;1.00;;;18.70;75.70;;;;;;5010109;28;20127;-68
2022/07/07 02:08:36;;;;;;;2.33;0.93;;;18.60;75.90;;;;;;5012152;28;20060;-68
2022/07/07 02:11:14;;;;;;;2.38;1.10;;;18.60;76.50;;;;;;5011710;28;20112;-68
2022/07/07 02:13:44;;;;;;;2.95;1.10;;;18.60;76.80;;;;;;5012540;28;20038;-68
2022/07/07 02:16:12;;;;;;;3.25;1.13;;;18.50;76.90;;;;;;5011692;28;20060;-68
2022/07/07 02:18:38;;;;;;;2.67;1.10;;;18.50;77.30;;;;;;5011789;28;20034;-68
2022/07/07 02:21:06;;;;;;;2.15;1.05;;;18.50;77.80;;;;;;4999921;28;20026;-68
2022/07/07 02:23:32;;;;;;;3.33;1.27;;;18.50;78.30;;;;;;5012360;28;20504;-68
2022/07/07 02:25:58;;;;;;;3.92;1.20;;;18.50;78.80;;;;;;5011040;28;20377;-68
2022/07/07 02:28:23;;;;;;;3.65;1.40;;;18.40;79.10;;;;;;5011865;28;20026;-68
2022/07/07 02:30:55;;;;;;;2.53;1.40;;;18.40;79.60;;;;;;4998110;28;20038;-68
2022/07/07 02:33:21;;;;;;;2.38;1.13;;;18.40;80.20;;;;;;5011548;28;20468;-68
2022/07/07 02:35:48;;;;;;;2.92;1.20;;;18.30;80.80;;;;;;5011966;28;20038;-69
2022/07/07 02:38:14;;;;;;;3.53;1.40;;;18.30;81.50;;;;;;5010862;28;20037;-69
2022/07/07 02:40:41;;;;;;;15.60;2.03;;;18.30;81.80;;;;;;5011599;28;20053;-69
2022/07/07 02:43:08;;;;;;;2.40;1.20;;;18.30;82.50;;;;;;5010636;28;20045;-69
2022/07/07 02:45:33;;;;;;;3.58;1.40;;;18.20;82.90;;;;;;5012157;28;20026;-69
2022/07/07 02:47:59;;;;;;;4.22;1.75;;;18.20;83.40;;;;;;5011028;28;20029;-69
2022/07/07 02:50:24;;;;;;;5.95;1.95;;;18.20;84.10;;;;;;5012070;28;20029;-69
2022/07/07 02:52:50;;;;;;;4.13;1.85;;;18.10;84.70;;;;;;5005559;28;20073;-69
2022/07/07 02:55:15;;;;;;;6.35;1.55;;;18.10;85.30;;;;;;4992836;28;20052;-69
2022/07/07 02:57:41;;;;;;;1.95;1.25;;;18.00;85.90;;;;;;5006376;28;20029;-69
2022/07/07 03:00:08;;;;;;;3.65;1.85;;;18.00;86.50;;;;;;5011125;28;20022;-70
2022/07/07 03:02:34;;;;;;;3.47;1.70;;;18.00;87.10;;;;;;5010928;28;20034;-70
2022/07/07 03:05:00;;;;;;;5.22;1.42;;;17.90;87.70;;;;;;5006658;28;20057;-70
2022/07/07 03:07:25;;;;;;;5.53;2.05;;;17.90;88.30;;;;;;5004354;28;20065;-71
2022/07/07 03:09:51;;;;;;;2.85;1.67;;;17.80;88.80;;;;;;5011012;28;20049;-69
2022/07/07 03:12:16;;;;;;;3.05;1.65;;;17.90;89.10;;;;;;5006928;28;20033;-69
2022/07/07 03:14:42;;;;;;;3.40;1.60;;;17.80;89.30;;;;;;5010861;28;20033;-69
2022/07/07 03:17:07;;;;;;;2.65;1.27;;;17.80;89.60;;;;;;5002348;28;20150;-70
2022/07/07 03:19:34;;;;;;;4.32;1.58;;;17.70;90.00;;;;;;4997365;28;20026;-69
2022/07/07 03:22:01;;;;;;;2.67;1.65;;;17.70;90.30;;;;;;5006967;28;20022;-69
2022/07/07 03:24:27;;;;;;;3.30;1.83;;;17.60;90.60;;;;;;5010314;28;20053;-69
2022/07/07 03:26:53;;;;;;;3.22;1.77;;;17.60;90.80;;;;;;5006032;28;20449;-68
2022/07/07 03:29:18;;;;;;;3.60;2.05;;;17.60;91.00;;;;;;5004786;28;20118;-69
2022/07/07 03:31:44;;;;;;;3.08;1.73;;;17.60;91.10;;;;;;5014092;28;20041;-68
2022/07/07 03:34:09;;;;;;;4.78;2.10;;;17.60;91.30;;;;;;5015550;28;20066;-69
2022/07/07 03:36:35;;;;;;;5.65;2.88;;;17.50;91.40;;;;;;5011019;28;20130;-69
2022/07/07 03:39:01;;;;;;;3.72;2.00;;;17.50;91.60;;;;;;5000505;28;20503;-69
2022/07/07 03:41:26;;;;;;;2.80;1.60;;;17.50;91.80;;;;;;5011510;28;20022;-69
2022/07/07 03:43:52;;;;;;;5.00;1.95;;;17.40;92.00;;;;;;5015082;28;20108;-69
2022/07/07 03:46:17;;;;;;;4.93;1.80;;;17.40;92.10;;;;;;5013448;28;20025;-69
2022/07/07 03:48:43;;;;;;;4.40;2.20;;;17.40;92.20;;;;;;5015043;28;20029;-69
2022/07/07 03:51:08;;;;;;;3.45;2.05;;;17.50;92.20;;;;;;5013398;28;20034;-69
2022/07/07 03:53:34;;;;;;;3.78;2.00;;;17.50;92.40;;;;;;5014536;28;20029;-69
2022/07/07 03:56:00;;;;;;;4.65;1.70;;;17.40;92.50;;;;;;5013285;28;20060;-69
2022/07/07 03:58:26;;;;;;;4.05;1.83;;;17.50;92.60;;;;;;5011817;28;20033;-69
2022/07/07 04:00:51;;;;;;;4.00;2.03;;;17.50;92.70;;;;;;4995134;28;20014;-68
2022/07/07 04:03:17;;;;;;;5.13;2.00;;;17.50;92.80;;;;;;5009380;28;20022;-69
2022/07/07 04:05:43;;;;;;;3.85;2.10;;;17.50;92.90;;;;;;5001982;28;20040;-69
2022/07/07 04:08:08;;;;;;;4.28;2.17;;;17.40;92.90;;;;;;5013561;28;20371;-70
2022/07/07 04:10:34;;;;;;;4.95;2.00;;;17.50;93.00;;;;;;5014698;28;20037;-70
2022/07/07 04:12:59;;;;;;;6.20;2.17;;;17.50;93.10;;;;;;5007264;28;20561;-70
2022/07/07 04:15:25;;;;;;;4.75;1.83;;;17.50;93.10;;;;;;4995115;28;20169;-69
2022/07/07 04:17:50;;;;;;;4.63;2.25;;;17.50;93.20;;;;;;5009026;28;20022;-69
2022/07/07 04:20:16;;;;;;;3.00;1.63;;;17.50;93.40;;;;;;5013433;28;20497;-69
2022/07/07 04:22:41;;;;;;;5.72;2.13;;;17.50;93.50;;;;;;5008543;28;20572;-70
2022/07/07 04:25:08;;;;;;;2.97;1.90;;;17.50;93.60;;;;;;4995553;28;20021;-69
2022/07/07 04:27:33;;;;;;;3.47;2.10;;;17.50;93.90;;;;;;5012212;28;20034;-69
2022/07/07 04:29:59;;;;;;;4.85;2.20;;;17.50;93.90;;;;;;5013992;28;20032;-70
2022/07/07 04:32:25;;;;;;;3.35;2.03;;;17.50;94.00;;;;;;5012588;28;20038;-69
2022/07/07 04:34:50;;;;;;;3.20;1.90;;;17.50;94.10;;;;;;5014306;28;20037;-69
2022/07/07 04:37:16;;;;;;;4.63;2.10;;;17.50;94.10;;;;;;5007663;28;20084;-69
2022/07/07 04:39:41;;;;;;;6.00;2.25;;;17.50;94.20;;;;;;5010131;28;20075;-69
2022/07/07 04:42:07;;;;;;;4.47;2.30;;;17.50;94.30;;;;;;5007063;28;20135;-69
2022/07/07 04:44:33;;;;;;;3.50;2.10;;;17.50;94.50;;;;;;5004401;28;20121;-69
2022/07/07 04:46:58;;;;;;;4.00;2.22;;;17.40;94.50;;;;;;5011266;28;20362;-70
2022/07/07 04:49:24;;;;;;;2.95;1.83;;;17.40;94.70;;;;;;5012956;28;20022;-69
2022/07/07 04:51:49;;;;;;;4.03;2.00;;;17.40;94.80;;;;;;5012690;28;20048;-69
2022/07/07 04:54:15;;;;;;;3.92;2.10;;;17.40;95.00;;;;;;5013618;28;20033;-69
2022/07/07 04:56:41;;;;;;;3.60;1.85;;;17.40;95.10;;;;;;5012382;28;20026;-69
2022/07/07 04:59:06;;;;;;;4.70;2.08;;;17.40;95.20;;;;;;5013358;28;20049;-69
2022/07/07 05:01:32;;;;;;;5.03;2.33;;;17.30;95.30;;;;;;5011536;28;20018;-69
2022/07/07 05:03:58;;;;;;;3.40;2.22;;;17.40;95.40;;;;;;5012321;28;20615;-69
2022/07/07 05:06:23;;;;;;;3.08;1.88;;;17.30;95.40;;;;;;5012290;28;20363;-68
2022/07/07 05:08:49;;;;;;;5.38;2.25;;;17.40;95.50;;;;;;5013135;28;20054;-69
2022/07/07 05:11:14;;;;;;;3.67;2.40;;;17.40;95.70;;;;;;5006291;28;20458;-69
2022/07/07 05:13:40;;;;;;;4.88;2.50;;;17.40;95.60;;;;;;5012957;28;20101;-69
2022/07/07 05:16:06;;;;;;;4.32;2.00;;;17.50;95.70;;;;;;5012648;28;20068;-71
2022/07/07 05:18:32;;;;;;;5.35;2.33;;;17.50;95.80;;;;;;5012874;28;20032;-70
2022/07/07 05:20:58;;;;;;;4.35;2.22;;;17.60;95.80;;;;;;5008053;28;20392;-75
2022/07/07 05:23:25;;;;;;;4.35;2.15;;;17.60;95.80;;;;;;5011728;28;20026;-70
2022/07/07 05:25:54;;;;;;;7.28;3.35;;;17.70;95.80;;;;;;5011551;28;20032;-71
2022/07/07 05:28:20;;;;;;;4.57;1.98;;;17.70;95.80;;;;;;5012912;28;20113;-67
2022/07/07 05:30:46;;;;;;;2.65;2.00;;;17.70;95.80;;;;;;5012552;28;20149;-68
2022/07/07 05:33:12;;;;;;;3.80;2.30;;;17.70;95.80;;;;;;5012315;28;20544;-66
2022/07/07 05:35:37;;;;;;;4.97;2.45;;;17.70;95.90;;;;;;5011679;28;20018;-66
2022/07/07 05:38:03;;;;;;;5.38;2.22;;;17.70;95.90;;;;;;5012372;28;20034;-66
2022/07/07 05:40:30;;;;;;;4.88;2.38;;;17.60;96.00;;;;;;5000343;28;20097;-66
2022/07/07 05:42:55;;;;;;;3.92;2.58;;;17.60;96.00;;;;;;5010987;28;20029;-66
2022/07/07 05:45:21;;;;;;;5.25;2.90;;;17.70;96.00;;;;;;5010868;28;20022;-66
2022/07/07 05:47:47;;;;;;;3.03;2.00;;;17.60;96.00;;;;;;5009699;28;20485;-66
2022/07/07 05:50:13;;;;;;;3.88;1.90;;;17.60;96.10;;;;;;4999020;28;20026;-66
2022/07/07 05:52:39;;;;;;;5.38;2.85;;;17.60;96.10;;;;;;5003591;28;20058;-66
2022/07/07 05:55:05;;;;;;;4.75;1.95;;;17.70;96.20;;;;;;4994792;28;20028;-66
2022/07/07 05:57:31;;;;;;;5.95;2.15;;;17.70;96.20;;;;;;5011569;28;20164;-67
2022/07/07 05:59:57;;;;;;;3.53;2.15;;;17.70;96.30;;;;;;5011711;28;20022;-66
2022/07/07 06:02:22;;;;;;;3.42;2.28;;;17.70;96.30;;;;;;5014964;28;20048;-67
2022/07/07 06:04:48;;;;;;;5.43;2.75;;;17.70;96.40;;;;;;5012125;28;20052;-67
2022/07/07 06:07:13;;;;;;;3.03;2.00;;;17.70;96.30;;;;;;5006099;28;20073;-67
2022/07/07 06:09:39;;;;;;;4.60;2.05;;;17.70;96.40;;;;;;5011784;28;20108;-67
2022/07/07 06:12:05;;;;;;;4.35;2.70;;;17.70;96.40;;;;;;4998928;28;20049;-67
2022/07/07 06:14:31;;;;;;;7.25;2.95;;;17.70;96.70;;;;;;4992541;28;20073;-67
2022/07/07 06:16:56;;;;;;;8.48;2.50;;;17.70;96.60;;;;;;5001165;28;20424;-66
2022/07/07 06:19:22;;;;;;;5.78;2.13;;;17.70;96.70;;;;;;5010756;28;20044;-66
2022/07/07 06:21:48;;;;;;;5.32;2.90;;;17.80;96.70;;;;;;5006611;28;20061;-66
2022/07/07 06:24:13;;;;;;;5.72;2.65;;;17.80;96.70;;;;;;5009166;28;20071;-66
2022/07/07 06:26:39;;;;;;;3.75;2.35;;;17.80;96.70;;;;;;5009800;28;20109;-66
2022/07/07 06:29:05;;;;;;;4.07;2.53;;;17.80;96.60;;;;;;5009575;28;20030;-66
2022/07/07 06:31:30;;;;;;;5.75;3.55;;;17.80;96.50;;;;;;5007937;28;20026;-65
2022/07/07 06:33:56;;;;;;;4.65;2.63;;;17.80;96.50;;;;;;4998345;28;20038;-64
2022/07/07 06:36:22;;;;;;;4.53;3.03;;;17.80;96.70;;;;;;5006757;28;20021;-65
2022/07/07 06:38:47;;;;;;;4.55;2.58;;;17.70;96.70;;;;;;5006785;28;20490;-65
2022/07/07 06:41:13;;;;;;;3.78;2.58;;;17.70;96.80;;;;;;5013713;28;20030;-65
2022/07/07 06:43:38;;;;;;;3.97;2.70;;;17.70;96.90;;;;;;5003307;28;20585;-63
2022/07/07 06:46:04;;;;;;;3.22;2.30;;;17.80;96.90;;;;;;5012338;28;20630;-65
2022/07/07 06:48:29;;;;;;;4.57;2.45;;;17.80;97.00;;;;;;5008726;28;20025;-65
2022/07/07 06:50:55;;;;;;;3.00;2.22;;;17.80;97.00;;;;;;5003423;28;20478;-65
2022/07/07 06:53:21;;;;;;;4.03;2.50;;;17.80;97.00;;;;;;5013432;28;20070;-65
2022/07/07 06:55:47;;;;;;;5.55;2.10;;;17.80;97.00;;;;;;5012640;28;20056;-65
2022/07/07 06:58:15;;;;;;;3.80;2.35;;;17.80;96.90;;;;;;5023518;28;20126;-65
2022/07/07 07:00:41;;;;;;;2.97;2.28;;;17.80;97.00;;;;;;5009873;28;20557;-65
2022/07/07 07:03:07;;;;;;;3.25;2.22;;;17.80;97.00;;;;;;5007070;28;20109;-65
2022/07/07 07:05:32;;;;;;;3.20;2.17;;;17.80;97.00;;;;;;5012338;28;20026;-65
2022/07/07 07:07:58;;;;;;;3.83;2.13;;;17.90;97.00;;;;;;5010492;28;20018;-65
2022/07/07 07:10:23;;;;;;;3.33;2.50;;;17.90;96.90;;;;;;5010489;28;20061;-65
2022/07/07 07:12:49;;;;;;;2.70;2.10;;;17.90;97.00;;;;;;5010604;28;20593;-65
2022/07/07 07:15:14;;;;;;;4.20;1.90;;;17.90;97.10;;;;;;5005260;28;20072;-65
2022/07/07 07:17:42;;;;;;;3.17;1.92;;;17.90;97.10;;;;;;5007996;28;20030;-65
2022/07/07 07:20:08;;;;;;;3.58;2.28;;;17.90;97.10;;;;;;5013031;28;20022;-65
2022/07/07 07:22:40;;;;;;;4.03;1.90;;;18.00;97.30;;;;;;5008453;28;20076;-65
2022/07/07 07:25:07;;;;;;;5.13;2.38;;;18.00;97.30;;;;;;5012617;28;20029;-65
2022/07/07 07:27:34;;;;;;;3.05;1.90;;;18.00;97.40;;;;;;5013090;28;20030;-65
2022/07/07 07:30:00;;;;;;;3.97;1.98;;;18.00;97.30;;;;;;5012113;28;20058;-65
2022/07/07 07:32:26;;;;;;;3.30;2.13;;;18.10;97.40;;;;;;5011199;28;20057;-65
2022/07/07 07:34:51;;;;;;;3.40;2.25;;;18.10;97.40;;;;;;5006458;28;20481;-65
2022/07/07 07:37:17;;;;;;;2.75;1.92;;;18.20;97.30;;;;;;5009326;28;20394;-65
2022/07/07 07:39:42;;;;;;;2.92;2.08;;;18.20;97.30;;;;;;5012857;28;20026;-65
2022/07/07 07:42:08;;;;;;;2.40;1.52;;;18.20;97.20;;;;;;5013197;28;20030;-66
2022/07/07 07:47:18;;;;;;;3.17;1.70;;;18.20;97.20;;;;;;5011693;28;20087;-66
2022/07/07 07:49:43;;;;;;;2.63;2.22;;;18.20;97.20;;;;;;5005714;28;20109;-65
2022/07/07 07:52:09;;;;;;;2.85;2.03;;;18.30;97.20;;;;;;5012411;28;20528;-66
2022/07/07 07:54:34;;;;;;;2.38;1.90;;;18.30;97.20;;;;;;5014090;28;20109;-65
2022/07/07 07:57:00;;;;;;;2.88;1.90;;;18.40;97.30;;;;;;5009377;28;20033;-66
2022/07/07 07:59:25;;;;;;;4.63;1.90;;;18.40;97.20;;;;;;5023165;28;20148;-65
2022/07/07 08:01:51;;;;;;;2.63;2.05;;;18.40;97.20;;;;;;5012011;28;20409;-65
2022/07/07 08:04:17;;;;;;;2.85;2.30;;;18.40;97.20;;;;;;5014378;28;20021;-65
2022/07/07 08:06:42;;;;;;;2.33;1.88;;;18.50;97.20;;;;;;5007375;28;20073;-66
2022/07/07 08:09:08;;;;;;;3.08;1.77;;;18.50;97.30;;;;;;5013526;28;20041;-66
2022/07/07 08:11:33;;;;;;;2.50;2.10;;;18.60;97.20;;;;;;5010863;28;20037;-67
2022/07/07 08:13:59;;;;;;;3.00;2.10;;;18.60;97.20;;;;;;5013849;28;20501;-67
2022/07/07 08:16:25;;;;;;;4.05;2.00;;;18.70;97.20;;;;;;5002951;28;20049;-66
2022/07/07 08:18:50;;;;;;;2.47;2.10;;;18.70;97.20;;;;;;5013388;28;20029;-67
2022/07/07 08:21:16;;;;;;;2.92;2.28;;;18.80;97.20;;;;;;5000628;28;20029;-66
2022/07/07 08:23:41;;;;;;;2.90;2.10;;;18.80;97.10;;;;;;5017374;28;20405;-66
2022/07/07 08:26:07;;;;;;;3.22;2.40;;;18.80;97.10;;;;;;5011930;28;20030;-66
2022/07/07 08:28:33;;;;;;;2.40;2.00;;;18.90;97.20;;;;;;5007192;28;20034;-67
2022/07/07 08:30:58;;;;;;;2.92;2.28;;;18.90;97.20;;;;;;5011622;28;20034;-66
2022/07/07 08:33:24;;;;;;;3.08;2.10;;;19.00;97.20;;;;;;5012960;28;20064;-67
2022/07/07 08:35:50;;;;;;;3.40;2.20;;;19.00;97.20;;;;;;5012634;28;20042;-66
2022/07/07 08:38:15;;;;;;;2.40;2.20;;;19.10;97.20;;;;;;5006682;28;20539;-65
2022/07/07 08:40:41;;;;;;;4.68;2.15;;;19.10;97.20;;;;;;5008691;28;20061;-65
2022/07/07 08:43:07;;;;;;;2.90;2.20;;;19.20;97.20;;;;;;5011224;28;20022;-65
2022/07/07 08:45:33;;;;;;;3.53;1.70;;;19.20;97.10;;;;;;5007062;28;20030;-65
2022/07/07 08:47:59;;;;;;;3.13;2.30;;;19.20;97.10;;;;;;5008160;28;20383;-65
2022/07/07 08:50:25;;;;;;;2.72;2.05;;;19.30;97.10;;;;;;5006105;28;20048;-65
2022/07/07 08:52:54;;;;;;;3.08;1.90;;;19.40;97.10;;;;;;5011208;28;20038;-66
2022/07/07 08:55:23;;;;;;;3.25;1.80;;;19.40;96.90;;;;;;5010204;28;20083;-65
2022/07/07 08:57:50;;;;;;;3.67;1.88;;;19.50;96.80;;;;;;5008781;28;20077;-65
2022/07/07 09:00:17;;;;;;;4.22;2.70;;;19.50;96.90;;;;;;5002703;28;20402;-66
2022/07/07 09:02:43;;;;;;;3.72;2.40;;;19.60;97.00;;;;;;5007359;28;20080;-66
2022/07/07 09:05:09;;;;;;;4.60;2.38;;;19.60;96.90;;;;;;5012260;28;20033;-66
2022/07/07 09:07:45;;;;;;;3.17;2.17;;;19.60;96.70;;;;;;5010295;28;20087;-66
2022/07/07 09:10:11;;;;;;;3.75;2.40;;;19.70;96.60;;;;;;5011642;28;20062;-66
2022/07/07 09:12:36;;;;;;;2.33;1.88;;;19.70;96.60;;;;;;5010124;28;20421;-66
2022/07/07 09:15:04;;;;;;;2.15;1.70;;;19.70;96.60;;;;;;5006239;28;20085;-66
2022/07/07 09:17:30;;;;;;;2.50;1.90;;;19.70;96.50;;;;;;5005318;28;20044;-66
2022/07/07 09:19:59;;;;;;;2.03;1.80;;;19.70;96.50;;;;;;5008583;28;20026;-66
2022/07/07 09:22:51;;;;;;;3.85;2.38;;;19.70;96.50;;;;;;5001956;28;20030;-65
2022/07/07 09:25:20;;;;;;;2.20;1.95;;;19.70;96.40;;;;;;5003742;28;20662;-66
2022/07/07 09:27:55;;;;;;;2.03;1.70;;;19.70;96.40;;;;;;5008138;28;20037;-70
2022/07/07 09:30:28;;;;;;;2.65;1.90;;;19.80;96.30;;;;;;5012428;28;20489;-67
2022/07/07 09:32:54;;;;;;;2.88;1.85;;;19.80;96.30;;;;;;5008453;28;20053;-67
2022/07/07 09:38:14;;;;;;;3.22;2.17;;;19.80;96.30;;;;;;5004705;28;20117;-66
2022/07/07 09:40:59;;;;;;;2.53;1.88;;;19.80;96.40;;;;;;5009721;28;20493;-66
2022/07/07 09:43:26;;;;;;;;;;;19.80;96.40;;;;;;5007800;28;20037;-66
2022/07/07 09:46:05;;;;;;;2.45;1.95;;;19.80;96.10;;;;;;5001301;28;20353;-66
2022/07/07 09:48:32;;;;;;;3.40;2.20;;;19.70;96.30;;;;;;5010069;28;20032;-67
2022/07/07 09:51:22;;;;;;;3.13;2.00;;;19.70;96.40;;;;;;5009699;28;20034;-66
2022/07/07 09:54:07;;;;;;;3.08;2.10;;;19.80;96.50;;;;;;5012459;28;20038;-66
2022/07/07 09:56:41;;;;;;;3.97;1.90;;;19.80;96.50;;;;;;5011137;28;20030;-67
2022/07/07 09:59:15;;;;;;;3.28;2.50;;;19.80;96.40;;;;;;5011962;28;20045;-67
2022/07/07 10:01:45;;;;;;;2.90;2.03;;;19.80;96.50;;;;;;5011398;28;20083;-66
2022/07/07 10:04:17;;;;;;;3.03;2.33;;;19.80;96.50;;;;;;5002833;28;20474;-67
2022/07/07 10:06:43;;;;;;;3.17;2.38;;;19.90;96.70;;;;;;5011795;28;20026;-65
2022/07/07 10:09:16;;;;;;;4.60;2.35;;;19.90;96.60;;;;;;5010084;28;20050;-65
2022/07/07 10:11:44;;;;;;;3.47;2.00;;;19.90;96.60;;;;;;5000548;28;20095;-65
2022/07/07 10:14:16;;;;;;;4.60;2.58;;;19.90;96.50;;;;;;5011766;28;20394;-67
2022/07/07 10:16:44;;;;;;;2.53;1.88;;;20.00;96.50;;;;;;5010414;28;20113;-67
2022/07/07 10:19:12;;;;;;;3.78;2.40;;;19.90;96.60;;;;;;5009600;28;20034;-66
2022/07/07 10:21:42;;;;;;;2.70;2.17;;;20.00;96.60;;;;;;5005284;28;20109;-66
2022/07/07 10:24:09;;;;;;;3.30;2.00;;;20.00;96.60;;;;;;5010620;28;20117;-67
2022/07/07 10:26:53;;;;;;;2.72;2.00;;;20.00;96.60;;;;;;5005045;28;20404;-67
2022/07/07 10:29:37;;;;;;;2.70;2.30;;;20.10;96.60;;;;;;5010151;28;20100;-66
2022/07/07 10:32:03;;;;;;;3.88;2.70;;;20.10;96.50;;;;;;5010631;28;20041;-66
2022/07/07 10:34:33;;;;;;;3.33;2.92;;;20.10;96.60;;;;;;4997318;28;20034;-66
2022/07/07 10:36:59;;;;;;;4.40;2.75;;;20.10;96.50;;;;;;5000282;28;20022;-66
2022/07/07 10:39:27;;;;;;;12.60;5.18;;;20.10;96.50;;;;;;5002744;28;20033;-66
2022/07/07 10:42:18;;;;;;;16.88;5.88;;;20.10;96.50;;;;;;4999493;28;20084;-66
2022/07/07 10:44:50;;;;;;;15.95;6.97;;;20.10;96.60;;;;;;5005628;28;20104;-66
2022/07/07 10:47:21;;;;;;;65.43;21.90;;;20.10;96.60;;;;;;5005537;28;20038;-66
2022/07/07 10:49:48;;;;;;;22.60;8.68;;;20.20;96.70;;;;;;4997377;28;20022;-66
2022/07/07 10:52:15;;;;;;;24.67;8.35;;;20.20;96.60;;;;;;5001213;28;20425;-66
2022/07/07 10:54:58;;;;;;;34.72;11.95;;;20.20;96.80;;;;;;5005657;28;20101;-66
2022/07/07 10:57:26;;;;;;;15.27;6.45;;;20.30;96.60;;;;;;5009954;28;20041;-65
2022/07/07 11:00:09;;;;;;;11.63;5.60;;;20.20;96.50;;;;;;5010795;28;20037;-64
2022/07/07 11:03:06;;;;;;;12.73;5.82;;;20.30;96.50;;;;;;5009187;28;20033;-65
2022/07/07 11:05:33;;;;;;;11.23;4.82;;;20.30;96.50;;;;;;4993790;28;20064;-65
2022/07/07 11:07:59;;;;;;;6.47;3.65;;;20.30;96.50;;;;;;5007825;28;20052;-65
2022/07/07 11:10:37;;;;;;;7.40;4.10;;;20.20;96.60;;;;;;5009704;28;20037;-66
2022/07/07 11:13:30;;;;;;;4.88;3.40;;;20.30;96.70;;;;;;5009526;28;20046;-66
2022/07/07 11:16:14;;;;;;;6.40;3.58;;;20.20;96.80;;;;;;5011164;28;20355;-66
2022/07/07 11:18:47;;;;;;;4.97;3.67;;;20.20;97.00;;;;;;4997941;28;20046;-67
2022/07/07 11:21:13;;;;;;;4.88;3.92;;;20.20;97.10;;;;;;5010975;28;20768;-67
2022/07/07 11:23:52;;;;;;;7.18;4.15;;;20.20;97.10;;;;;;5007230;28;20037;-67
2022/07/07 11:26:20;;;;;;;6.63;3.90;;;20.20;97.10;;;;;;5009987;28;20026;-66
2022/07/07 11:28:46;;;;;;;4.90;3.88;;;20.20;97.20;;;;;;4993389;28;20036;-68
2022/07/07 11:31:13;;;;;;;5.47;3.92;;;20.20;97.30;;;;;;4996474;28;20025;-68
2022/07/07 11:33:39;;;;;;;4.78;3.63;;;20.20;97.40;;;;;;5010881;28;20897;-68
2022/07/07 11:36:15;;;;;;;6.05;3.92;;;20.20;97.40;;;;;;5009676;28;20050;-68
2022/07/07 11:38:42;;;;;;;7.35;4.40;;;20.20;97.50;;;;;;5013995;28;20030;-68
2022/07/07 11:41:08;;;;;;;6.35;4.38;;;20.20;97.50;;;;;;5011433;28;20153;-68
2022/07/07 11:43:33;;;;;;;5.90;4.65;;;20.20;97.60;;;;;;5014102;28;20105;-67
2022/07/07 11:45:59;;;;;;;5.28;4.75;;;20.20;97.90;;;;;;5003982;28;20025;-66
2022/07/07 11:48:35;;;;;;;6.00;4.72;;;20.20;97.80;;;;;;4995792;28;20058;-66
2022/07/07 11:51:01;;;;;;;5.13;4.13;;;20.20;97.80;;;;;;5008100;28;20105;-67
2022/07/07 11:53:26;;;;;;;5.63;5.00;;;20.20;97.80;;;;;;5014556;28;20128;-67
2022/07/07 11:55:52;;;;;;;5.47;4.53;;;20.20;97.80;;;;;;5014709;28;20105;-65
2022/07/07 11:58:17;;;;;;;5.15;4.35;;;20.20;97.90;;;;;;5022932;28;20029;-66
2022/07/07 12:00:43;;;;;;;7.00;4.80;;;20.20;98.00;;;;;;5013553;28;20022;-67
2022/07/07 12:03:09;;;;;;;5.18;4.68;;;20.30;98.10;;;;;;5013394;28;20038;-66
2022/07/07 12:05:43;;;;;;;5.47;4.28;;;20.30;98.10;;;;;;5013503;28;20046;-67
2022/07/07 12:08:12;;;;;;;5.03;4.13;;;20.30;98.10;;;;;;5014282;28;20073;-67
2022/07/07 12:10:38;;;;;;;5.70;4.25;;;20.40;98.20;;;;;;5013763;28;20474;-67
2022/07/07 12:13:06;;;;;;;4.47;4.00;;;20.50;98.20;;;;;;5014460;28;20038;-67
2022/07/07 12:15:34;;;;;;;5.15;4.63;;;20.60;98.10;;;;;;5007427;28;20023;-67
2022/07/07 12:18:02;;;;;;;4.75;4.25;;;20.60;98.00;;;;;;4999810;28;20030;-67
2022/07/07 12:20:28;;;;;;;4.57;4.13;;;20.70;98.00;;;;;;5013177;28;20508;-67
2022/07/07 12:22:59;;;;;;;6.95;4.10;;;20.70;97.90;;;;;;5014138;28;20359;-67
2022/07/07 12:25:27;;;;;;;7.25;4.22;;;20.70;98.00;;;;;;5011583;28;20424;-67
2022/07/07 12:27:57;;;;;;;4.57;4.13;;;21.00;98.10;;;;;;4994620;28;20022;-67
2022/07/07 12:30:27;;;;;;;4.45;4.00;;;21.10;98.10;;;;;;5004808;28;20500;-67
2022/07/07 12:32:54;;;;;;;6.00;3.53;;;21.30;98.00;;;;;;5004574;28;20042;-67
2022/07/07 12:35:29;;;;;;;4.05;3.28;;;21.40;97.90;;;;;;5003300;28;20105;-67
2022/07/07 12:37:56;;;;;;;4.65;3.40;;;21.60;97.70;;;;;;5014049;28;20041;-67
2022/07/07 12:40:22;;;;;;;4.18;3.40;;;21.80;97.60;;;;;;5012879;28;20529;-67
2022/07/07 12:42:49;;;;;;;3.72;3.25;;;22.00;97.30;;;;;;5014085;28;20033;-67
2022/07/07 12:45:17;;;;;;;3.53;3.10;;;22.10;97.00;;;;;;5007849;28;20026;-67
2022/07/07 12:47:51;;;;;;;3.47;3.17;;;22.30;96.60;;;;;;5013263;28;20029;-67
2022/07/07 12:50:17;;;;;;;4.00;3.43;;;22.30;96.30;;;;;;5007859;28;20073;-68
2022/07/07 12:53:01;;;;;;;4.70;3.80;;;22.40;96.20;;;;;;5011087;28;20042;-66